createdAt,value
2023-10-26T00:01:55.275Z,19.33
2023-10-26T00:04:22.526Z,21.88
2023-10-26T00:06:49.625Z,22.63
2023-10-26T00:09:17.084Z,22.52
2023-10-26T00:11:44.945Z,24.77
2023-10-26T00:14:15.576Z,21.65
2023-10-26T00:16:51.487Z,22.23
2023-10-26T00:19:18.828Z,21.08
2023-10-26T00:21:45.947Z,19.48
2023-10-26T00:24:13.557Z,19.23
2023-10-26T00:26:42.024Z,22.02
2023-10-26T00:29:09.088Z,21.25
2023-10-26T00:31:36.362Z,21.65
2023-10-26T00:34:03.531Z,16.02
2023-10-26T00:36:30.912Z,17.63
2023-10-26T00:38:57.978Z,19.42
2023-10-26T00:41:24.964Z,20.70
2023-10-26T00:43:52.719Z,20.35
2023-10-26T00:46:19.869Z,18.83
2023-10-26T00:48:47.325Z,18.13
2023-10-26T00:51:15.152Z,18.92
2023-10-26T00:53:42.986Z,21.67
2023-10-26T00:56:13.118Z,17.75
2023-10-26T00:58:40.609Z,20.42
2023-10-26T01:01:07.809Z,20.65
2023-10-26T01:03:35.725Z,19.13
2023-10-26T01:06:02.882Z,23.45
2023-10-26T01:08:29.974Z,17.40
2023-10-26T01:10:58.580Z,16.52
2023-10-26T01:13:26.114Z,16.20
2023-10-26T01:15:53.158Z,21.65
2023-10-26T01:18:20.432Z,19.73
2023-10-26T01:20:47.623Z,20.27
2023-10-26T01:23:15.896Z,19.08
2023-10-26T01:25:44.000Z,16.30
2023-10-26T01:28:11.615Z,15.65
2023-10-26T01:30:42.996Z,16.08
2023-10-26T01:33:10.595Z,18.73
2023-10-26T01:35:47.233Z,18.65
2023-10-26T05:16:27.166Z,31.38
2023-10-26T05:18:54.436Z,28.70
2023-10-26T05:21:21.786Z,24.33
2023-10-26T05:23:49.184Z,28.55
2023-10-26T05:26:21.363Z,28.20
2023-10-26T05:28:48.809Z,28.73
2023-10-26T05:31:17.503Z,27.88
2023-10-26T05:33:48.482Z,32.60
2023-10-26T05:36:23.807Z,28.05
2023-10-26T05:38:54.970Z,29.65
2023-10-26T05:41:24.799Z,34.10
2023-10-26T05:43:56.107Z,29.88
2023-10-26T05:46:23.416Z,31.05
2023-10-26T05:48:50.832Z,29.00
2023-10-26T05:51:18.208Z,35.13
2023-10-26T05:53:45.803Z,33.47
2023-10-26T05:56:13.014Z,39.15
2023-10-26T05:58:40.401Z,27.60
2023-10-26T06:01:10.342Z,32.42
2023-10-26T06:03:37.861Z,30.90
2023-10-26T06:06:05.361Z,29.83
2023-10-26T06:08:36.298Z,31.33
2023-10-26T06:11:03.653Z,41.03
2023-10-26T06:13:30.901Z,34.15
2023-10-26T06:15:58.038Z,36.47
2023-10-26T06:18:25.166Z,31.17
2023-10-26T06:20:59.561Z,36.13
2023-10-26T06:23:28.810Z,34.92
2023-10-26T06:26:01.686Z,31.30
2023-10-26T06:28:39.202Z,32.47
2023-10-26T06:31:17.220Z,30.13
2023-10-26T06:36:35.287Z,34.78
2023-10-26T06:39:03.471Z,37.10
2023-10-26T06:41:30.659Z,42.47
2023-10-26T06:44:00.522Z,30.25
2023-10-26T06:46:35.835Z,31.85
2023-10-26T06:49:18.424Z,32.80
2023-10-26T06:51:52.905Z,43.65
2023-10-26T06:54:20.235Z,33.90
2023-10-26T06:57:05.163Z,32.67
2023-10-26T06:59:39.633Z,31.65
2023-10-26T07:02:16.290Z,35.13
2023-10-26T07:04:46.088Z,31.27
2023-10-26T07:07:16.742Z,37.45
2023-10-26T07:09:43.713Z,33.00
2023-10-26T07:12:45.066Z,33.17
2023-10-26T07:15:21.966Z,31.33
2023-10-26T07:17:49.977Z,35.20
2023-10-26T07:20:21.517Z,31.23
2023-10-26T07:22:53.556Z,32.10
2023-10-26T07:25:20.647Z,35.17
2023-10-26T07:27:51.067Z,29.58
2023-10-26T07:30:19.085Z,30.52
2023-10-26T07:32:47.116Z,33.05
2023-10-26T07:35:16.162Z,28.30
2023-10-26T07:37:52.147Z,33.97
2023-10-26T07:40:30.684Z,27.10
2023-10-26T07:42:58.171Z,26.65
2023-10-26T07:45:27.269Z,26.40
2023-10-26T07:48:02.007Z,24.67
2023-10-26T07:50:30.453Z,27.40
2023-10-26T07:52:58.070Z,24.38
2023-10-26T07:55:25.141Z,22.40
2023-10-26T07:57:52.216Z,21.40
2023-10-26T08:00:19.182Z,22.10
2023-10-26T08:02:46.469Z,22.27
2023-10-26T08:05:16.552Z,21.58
2023-10-26T08:07:43.717Z,24.83
2023-10-26T08:10:11.418Z,22.23
2023-10-26T08:12:38.537Z,21.73
2023-10-26T08:16:06.111Z,27.23
2023-10-26T08:17:53.286Z,27.60
2023-10-26T08:20:21.011Z,21.63
2023-10-26T08:22:48.136Z,26.27
2023-10-26T08:25:18.955Z,22.50
2023-10-26T08:27:55.021Z,23.30
2023-10-26T08:30:22.208Z,24.35
2023-10-26T08:32:51.347Z,24.10
2023-10-26T08:35:18.477Z,23.80
2023-10-26T08:37:45.410Z,21.85
2023-10-26T08:40:13.593Z,21.20
2023-10-26T08:42:41.416Z,21.40
2023-10-26T08:45:13.868Z,17.60
2023-10-26T08:47:43.559Z,22.92
2023-10-26T08:50:16.653Z,19.33
2023-10-26T08:52:44.336Z,18.30
2023-10-26T08:55:11.426Z,18.10
2023-10-26T08:57:47.523Z,17.27
2023-10-26T09:00:15.389Z,20.92
2023-10-26T09:02:42.773Z,15.75
2023-10-26T09:05:12.025Z,18.42
2023-10-26T09:07:39.780Z,17.52
2023-10-26T09:10:07.563Z,17.38
2023-10-26T09:12:35.355Z,15.75
2023-10-26T09:15:09.665Z,17.02
2023-10-26T09:17:37.598Z,17.30
2023-10-26T09:20:23.111Z,14.38
2023-10-26T09:22:50.149Z,15.00
2023-10-26T09:25:17.869Z,13.80
2023-10-26T09:27:47.180Z,13.93
2023-10-26T09:30:28.872Z,12.95
2023-10-26T09:33:00.698Z,18.02
2023-10-26T09:35:34.822Z,12.93
2023-10-26T09:38:02.254Z,11.57
2023-10-26T09:40:30.352Z,12.10
2023-10-26T09:42:57.596Z,14.60
2023-10-26T09:45:24.928Z,10.30
2023-10-26T09:47:52.135Z,9.85
2023-10-26T09:50:19.814Z,10.07
2023-10-26T09:52:47.852Z,10.55
2023-10-26T09:55:17.420Z,10.60
2023-10-26T09:57:59.403Z,10.90
2023-10-26T10:00:35.175Z,9.47
2023-10-26T10:03:19.122Z,10.50
2023-10-26T10:05:48.593Z,9.05
2023-10-26T10:08:35.635Z,9.27
2023-10-26T10:11:18.367Z,8.55
2023-10-26T10:16:38.820Z,11.18
2023-10-26T10:19:21.769Z,7.47
2023-10-26T10:21:50.565Z,8.75
2023-10-26T10:24:44.234Z,8.93
2023-10-26T10:27:13.143Z,7.20
2023-10-26T10:29:43.537Z,8.40
2023-10-26T10:32:14.358Z,6.22
2023-10-26T10:34:46.519Z,13.40
2023-10-26T10:37:19.024Z,5.05
2023-10-26T10:40:12.095Z,4.60
2023-10-26T10:45:14.078Z,7.35
2023-10-26T10:47:50.160Z,4.90
2023-10-26T10:50:22.440Z,5.05
2023-10-26T10:52:50.930Z,4.28
2023-10-26T10:55:32.195Z,4.68
2023-10-26T10:58:01.433Z,4.68
2023-10-26T11:00:46.651Z,4.40
2023-10-26T11:03:20.971Z,5.03
2023-10-26T11:05:50.286Z,4.60
2023-10-26T11:08:17.481Z,5.07
2023-10-26T11:10:51.434Z,5.55
2023-10-26T11:13:27.722Z,6.10
2023-10-26T11:15:55.081Z,4.65
2023-10-26T11:18:24.835Z,4.78
2023-10-26T11:20:51.861Z,3.97
2023-10-26T11:23:23.974Z,12.20
2023-10-26T11:25:51.037Z,6.07
2023-10-26T11:28:34.328Z,4.50
2023-10-26T11:31:23.858Z,6.00
2023-10-26T11:33:55.545Z,8.02
2023-10-26T11:36:22.733Z,4.15
2023-10-26T11:39:10.308Z,3.58
2023-10-26T11:41:37.301Z,4.22
2023-10-26T11:44:27.581Z,5.07
2023-10-26T11:46:59.261Z,3.33
2023-10-26T11:49:58.969Z,3.28
2023-10-26T11:52:31.702Z,4.00
2023-10-26T11:55:14.484Z,3.00
2023-10-26T11:57:45.162Z,5.10
2023-10-26T12:00:13.218Z,3.33
2023-10-26T12:02:40.933Z,4.22
2023-10-26T12:05:08.524Z,4.15
2023-10-26T12:07:35.616Z,5.30
2023-10-26T12:10:05.214Z,3.22
2023-10-26T12:12:35.797Z,5.32
2023-10-26T12:15:02.842Z,5.90
2023-10-26T12:17:55.528Z,4.55
2023-10-26T12:20:22.549Z,5.60
2023-10-26T12:22:51.252Z,5.25
2023-10-26T12:25:18.298Z,3.47
2023-10-26T12:28:20.682Z,2.80
2023-10-26T12:30:36.507Z,4.22
2023-10-26T12:33:17.457Z,3.05
2023-10-26T12:35:48.141Z,3.95
2023-10-26T12:38:35.140Z,3.92
2023-10-26T12:41:18.425Z,6.03
2023-10-26T12:44:05.828Z,2.42
2023-10-26T12:46:32.945Z,4.22
2023-10-26T12:49:03.166Z,2.75
2023-10-26T12:51:30.540Z,2.33
2023-10-26T12:54:02.468Z,3.15
2023-10-26T12:56:36.034Z,3.05
2023-10-26T12:59:11.089Z,3.10
2023-10-26T13:01:38.694Z,2.53
2023-10-26T13:04:05.937Z,2.90
2023-10-26T13:06:37.682Z,4.50
2023-10-26T13:09:28.968Z,3.83
2023-10-26T13:18:33.345Z,2.42
2023-10-26T13:25:00.731Z,3.63
2023-10-26T13:27:28.389Z,4.03
2023-10-26T13:29:55.457Z,5.90
2023-10-26T13:43:59.548Z,2.70
2023-10-26T13:46:26.642Z,5.85
2023-10-26T13:48:56.835Z,5.25
2023-10-26T13:51:24.567Z,2.63
2023-10-26T13:53:51.995Z,4.50
2023-10-26T13:56:59.504Z,2.40
2023-10-26T13:59:46.506Z,2.50
2023-10-26T14:02:13.612Z,1.42
2023-10-26T14:04:40.614Z,1.83
2023-10-26T14:07:10.379Z,3.22
2023-10-26T14:09:37.846Z,4.20
2023-10-26T14:12:05.225Z,2.22
2023-10-26T14:14:35.338Z,2.13
2023-10-26T14:17:04.869Z,2.13
2023-10-26T14:19:32.037Z,2.88
2023-10-26T14:22:14.849Z,3.17
2023-10-26T14:28:02.089Z,2.50
2023-10-26T14:30:32.510Z,1.77
2023-10-26T14:32:59.931Z,4.50
2023-10-26T14:35:29.802Z,3.22
2023-10-26T14:37:59.913Z,1.42
2023-10-26T14:40:28.363Z,5.13
2023-10-26T14:42:59.593Z,5.80
2023-10-26T14:45:26.847Z,2.00
2023-10-26T14:47:54.249Z,1.20
2023-10-26T14:50:21.334Z,1.80
2023-10-26T14:52:48.746Z,1.60
2023-10-26T14:55:15.972Z,3.10
2023-10-26T14:57:43.752Z,5.78
2023-10-26T15:00:11.103Z,1.60
2023-10-26T15:02:38.619Z,2.72
2023-10-26T15:05:08.548Z,1.50
2023-10-26T15:07:35.801Z,2.53
2023-10-26T15:10:22.948Z,2.33
2023-10-26T15:13:00.455Z,1.05
2023-10-26T15:15:30.502Z,5.07
2023-10-26T15:17:57.858Z,2.13
2023-10-26T15:20:25.174Z,1.20
2023-10-26T15:22:52.383Z,0.80
2023-10-26T15:25:19.428Z,2.15
2023-10-26T15:27:46.486Z,1.08
2023-10-26T15:30:15.818Z,1.67
2023-10-26T15:32:46.384Z,5.68
2023-10-26T15:35:14.061Z,2.60
2023-10-26T15:37:45.707Z,4.63
2023-10-26T15:40:13.642Z,2.38
2023-10-26T15:42:53.307Z,4.20
2023-10-26T15:45:21.872Z,1.38
2023-10-26T15:47:53.503Z,3.33
2023-10-26T15:50:21.039Z,1.17
2023-10-26T15:52:48.369Z,2.60
2023-10-26T15:55:15.710Z,3.63
2023-10-26T15:57:42.980Z,3.65
2023-10-26T16:00:22.009Z,2.75
2023-10-26T16:02:49.477Z,1.65
2023-10-26T16:05:21.897Z,3.47
2023-10-26T16:07:55.084Z,3.33
2023-10-26T16:10:27.106Z,3.47
2023-10-26T16:12:57.124Z,5.07
2023-10-26T16:15:31.068Z,3.90
2023-10-26T16:18:02.726Z,5.80
2023-10-26T16:20:36.220Z,2.90
2023-10-26T16:23:03.820Z,5.22
2023-10-26T16:25:38.289Z,3.05
2023-10-26T16:31:03.479Z,1.98
2023-10-26T16:33:30.528Z,2.75
2023-10-26T16:35:58.626Z,3.08
2023-10-26T16:38:26.208Z,4.78
2023-10-26T16:40:53.403Z,4.35
2023-10-26T16:43:21.280Z,8.25
2023-10-26T16:45:49.013Z,2.75
2023-10-26T16:48:17.309Z,3.67
2023-10-26T16:50:45.016Z,3.03
2023-10-26T16:53:27.390Z,5.05
2023-10-26T16:55:59.187Z,2.72
2023-10-26T16:58:26.239Z,2.20
2023-10-26T17:00:53.454Z,4.13
2023-10-26T17:03:20.664Z,3.92
2023-10-26T17:05:47.697Z,1.63
2023-10-26T17:08:15.204Z,1.95
2023-10-26T17:10:48.947Z,2.40
2023-10-26T17:13:17.026Z,2.55
2023-10-26T17:15:45.866Z,2.47
2023-10-26T17:18:12.946Z,3.85
2023-10-26T17:20:40.108Z,5.70
2023-10-26T17:23:07.124Z,3.65
2023-10-26T17:25:35.946Z,2.72
2023-10-26T17:28:03.645Z,5.60
2023-10-26T17:30:30.955Z,2.10
2023-10-26T17:32:58.397Z,4.88
2023-10-26T17:35:25.457Z,6.72
2023-10-26T17:37:54.441Z,3.25
2023-10-26T17:40:25.285Z,5.20
2023-10-26T17:42:52.650Z,5.68
2023-10-26T17:45:20.105Z,4.03
2023-10-26T17:47:47.214Z,4.85
2023-10-26T17:50:14.388Z,6.13
2023-10-26T17:52:41.343Z,5.82
2023-10-26T17:55:09.562Z,2.90
2023-10-26T17:57:37.909Z,2.22
2023-10-26T18:00:05.758Z,2.85
2023-10-26T18:02:38.935Z,3.25
2023-10-26T18:05:06.254Z,11.18
2023-10-26T18:07:34.800Z,2.88
2023-10-26T18:10:01.942Z,5.20
2023-10-26T18:12:30.819Z,3.95
2023-10-26T18:14:57.851Z,5.18
2023-10-26T18:17:26.416Z,5.05
2023-10-26T18:19:53.517Z,5.13
2023-10-26T18:22:20.642Z,2.22
2023-10-26T18:24:49.002Z,6.10
2023-10-26T18:27:16.574Z,4.20
2023-10-26T18:29:46.678Z,3.63
2023-10-26T18:32:14.296Z,3.78
2023-10-26T18:34:44.307Z,2.22
2023-10-26T18:37:11.497Z,3.08
2023-10-26T18:39:38.635Z,2.78
2023-10-26T18:42:06.471Z,4.78
2023-10-26T18:44:33.588Z,6.32
2023-10-26T18:47:00.985Z,4.90
2023-10-26T18:49:28.812Z,3.00
2023-10-26T18:51:56.254Z,2.95
2023-10-26T18:54:23.262Z,2.97
2023-10-26T18:56:50.306Z,4.97
2023-10-26T18:59:17.729Z,3.97
2023-10-26T19:01:45.367Z,2.70
2023-10-26T19:04:12.678Z,2.22
2023-10-26T19:06:41.277Z,2.00
2023-10-26T19:09:08.487Z,3.38
2023-10-26T19:11:37.131Z,2.20
2023-10-26T19:14:04.868Z,3.90
2023-10-26T19:16:32.196Z,2.78
2023-10-26T19:18:59.701Z,2.78
2023-10-26T19:21:27.711Z,6.38
2023-10-26T19:23:54.819Z,6.60
2023-10-26T19:26:21.914Z,3.65
2023-10-26T19:28:49.787Z,6.18
2023-10-26T19:31:19.640Z,2.30
2023-10-26T19:33:49.324Z,1.77
2023-10-26T19:36:22.939Z,1.35
2023-10-26T19:38:50.240Z,3.42
2023-10-26T19:41:17.674Z,2.72
2023-10-26T19:43:47.413Z,3.38
2023-10-26T19:46:14.802Z,5.80
2023-10-26T19:48:42.251Z,3.50
2023-10-26T19:51:09.789Z,4.53
2023-10-26T19:53:39.381Z,2.13
2023-10-26T19:56:06.881Z,5.38
2023-10-26T19:59:14.804Z,1.70
2023-10-26T20:01:44.210Z,3.28
2023-10-26T20:04:11.327Z,1.75
2023-10-26T20:06:39.618Z,2.45
2023-10-26T20:09:06.809Z,2.72
2023-10-26T20:11:34.034Z,2.63
2023-10-26T20:14:03.855Z,3.97
2023-10-26T20:16:34.588Z,4.73
2023-10-26T20:19:04.411Z,8.05
2023-10-26T20:21:31.618Z,2.90
2023-10-26T20:23:58.893Z,5.70
2023-10-26T20:26:25.972Z,1.73
2023-10-26T20:28:53.201Z,3.53
2023-10-26T20:31:20.408Z,2.20
2023-10-26T20:33:47.487Z,2.88
2023-10-26T20:36:15.357Z,2.40
2023-10-26T20:38:42.523Z,2.28
2023-10-26T20:41:09.760Z,2.95
2023-10-26T20:43:42.044Z,3.17
2023-10-26T20:46:09.331Z,1.80
2023-10-26T20:48:42.768Z,3.08
2023-10-26T20:51:12.041Z,2.53
2023-10-26T20:54:44.011Z,2.67
2023-10-26T20:57:16.994Z,2.72
2023-10-26T20:59:57.736Z,2.90
2023-10-26T21:02:27.284Z,3.92
2023-10-26T21:05:51.589Z,4.65
2023-10-26T21:09:14.745Z,2.75
2023-10-26T21:11:42.265Z,2.00
2023-10-26T21:14:34.310Z,1.63
2023-10-26T21:17:08.008Z,3.63
2023-10-26T21:19:46.431Z,3.33
2023-10-26T21:22:20.467Z,2.55
2023-10-26T21:24:54.862Z,2.30
2023-10-26T21:28:40.152Z,2.88
2023-10-26T21:31:10.950Z,2.28
2023-10-26T21:33:57.236Z,2.97
2023-10-26T21:36:25.448Z,2.67
2023-10-26T21:38:53.218Z,2.97
2023-10-26T21:41:41.072Z,3.30
2023-10-26T21:44:12.018Z,3.72
2023-10-26T21:46:53.342Z,2.55
2023-10-26T21:49:25.047Z,4.25
2023-10-26T21:52:29.658Z,4.28
2023-10-26T21:54:58.867Z,2.92
2023-10-26T21:57:26.146Z,4.43
2023-10-26T21:59:53.677Z,3.22
2023-10-26T22:02:27.473Z,2.53
2023-10-26T22:05:08.798Z,2.92
2023-10-26T22:07:40.696Z,3.47
2023-10-26T22:10:08.904Z,4.43
2023-10-26T22:12:37.371Z,2.83
2023-10-26T22:15:14.037Z,3.17
2023-10-26T22:17:42.283Z,3.22
2023-10-26T22:20:10.409Z,3.42
2023-10-26T22:22:46.021Z,3.50
2023-10-26T22:25:14.112Z,2.70
2023-10-26T22:27:41.628Z,3.58
2023-10-26T22:30:09.683Z,3.33
2023-10-26T22:32:36.980Z,2.58
2023-10-26T22:35:07.229Z,3.90
2023-10-26T22:37:38.291Z,3.67
2023-10-26T22:40:11.304Z,3.65
2023-10-26T22:42:39.229Z,2.92
2023-10-26T22:45:07.021Z,3.17
2023-10-26T22:47:34.244Z,5.25
2023-10-26T22:50:01.418Z,4.63
2023-10-26T22:52:28.365Z,2.60
2023-10-26T22:54:55.513Z,6.05
2023-10-26T22:57:49.248Z,3.65
2023-10-26T23:00:16.960Z,3.53
2023-10-26T23:02:43.996Z,5.05
2023-10-26T23:05:10.960Z,3.25
2023-10-26T23:07:37.984Z,3.45
2023-10-26T23:10:06.156Z,2.95
2023-10-26T23:12:33.248Z,5.72
2023-10-26T23:15:00.344Z,3.17
2023-10-26T23:17:27.750Z,3.47
2023-10-26T23:19:54.964Z,5.30
2023-10-26T23:22:22.062Z,3.00
2023-10-26T23:24:49.170Z,3.08
2023-10-26T23:27:16.207Z,2.00
2023-10-26T23:29:43.634Z,2.30
2023-10-26T23:32:10.840Z,3.60
2023-10-26T23:34:43.324Z,4.18
2023-10-26T23:37:11.692Z,3.72
2023-10-26T23:39:41.591Z,3.17
2023-10-26T23:42:08.489Z,2.95
2023-10-26T23:44:35.428Z,6.90
2023-10-26T23:47:02.460Z,3.13
2023-10-26T23:49:29.462Z,5.18
2023-10-26T23:51:56.468Z,3.17
2023-10-26T23:54:25.306Z,4.35
2023-10-26T23:56:52.741Z,2.45
2023-10-26T23:59:19.988Z,3.30
